createdAt,value
2018-04-14T00:00:19.375Z,9.81
2018-04-14T00:02:49.025Z,9.91
2018-04-14T00:05:18.664Z,9.97
2018-04-14T00:07:48.250Z,10.03
2018-04-14T00:10:20.546Z,10.04
2018-04-14T00:12:50.415Z,10.03
2018-04-14T00:15:20.842Z,9.89
2018-04-14T00:17:50.443Z,9.68
2018-04-14T00:20:19.966Z,9.63
2018-04-14T00:22:49.617Z,9.54
2018-04-14T00:25:19.915Z,9.34
2018-04-14T00:27:49.604Z,9.29
2018-04-14T00:30:19.202Z,9.40
2018-04-14T00:32:48.757Z,9.30
2018-04-14T00:35:19.360Z,9.16
2018-04-14T00:37:49.106Z,9.29
2018-04-14T00:40:19.925Z,9.40
2018-04-14T00:42:49.470Z,9.44
2018-04-14T00:45:26.040Z,9.43
2018-04-14T00:47:59.656Z,9.45
2018-04-14T00:50:30.128Z,9.53
2018-04-14T00:53:17.637Z,9.50
2018-04-14T00:55:47.246Z,9.40
2018-04-14T00:58:16.976Z,9.39
2018-04-14T01:00:46.777Z,9.25
2018-04-14T01:03:16.562Z,9.05
2018-04-14T01:05:46.245Z,8.89
2018-04-14T01:08:15.952Z,8.83
2018-04-14T01:10:46.473Z,8.87
2018-04-14T01:13:16.114Z,8.91
2018-04-14T01:15:45.993Z,8.91
2018-04-14T01:18:15.657Z,8.86
2018-04-14T01:20:46.372Z,8.90
2018-04-14T01:23:16.096Z,8.91
2018-04-14T01:25:49.032Z,8.96
2018-04-14T01:28:19.330Z,8.93
2018-04-14T01:30:49.091Z,8.91
2018-04-14T01:33:18.592Z,8.87
2018-04-14T01:35:48.435Z,8.74
2018-04-14T01:38:20.061Z,8.68
2018-04-14T01:40:50.603Z,8.60
2018-04-14T01:43:20.995Z,8.55
2018-04-14T01:45:51.413Z,8.40
2018-04-14T01:48:20.921Z,8.30
2018-04-14T01:50:51.266Z,8.32
2018-04-14T01:53:21.512Z,8.35
2018-04-14T01:55:51.126Z,8.32
2018-04-14T01:58:26.328Z,8.39
2018-04-14T02:00:55.984Z,8.33
2018-04-14T02:03:25.495Z,8.24
2018-04-14T02:05:55.431Z,8.15
2018-04-14T02:08:25.142Z,8.10
2018-04-14T02:10:54.944Z,8.19
2018-04-14T02:13:24.433Z,8.24
2018-04-14T02:15:54.289Z,8.27
2018-04-14T02:18:23.872Z,8.40
2018-04-14T02:20:53.415Z,8.52
2018-04-14T02:23:22.996Z,8.55
2018-04-14T02:25:52.523Z,8.55
2018-04-14T02:28:22.365Z,8.56
2018-04-14T02:30:51.946Z,8.59
2018-04-14T02:33:27.283Z,8.64
2018-04-14T02:35:58.592Z,8.68
2018-04-14T02:38:31.196Z,8.44
2018-04-14T02:41:04.519Z,8.32
2018-04-14T02:43:35.298Z,8.23
2018-04-14T02:46:04.946Z,8.16
2018-04-14T02:48:36.929Z,8.04
2018-04-14T02:51:06.836Z,8.28
2018-04-14T02:56:15.009Z,8.20
2018-04-14T02:58:45.041Z,8.15
2018-04-14T03:01:15.429Z,8.00
2018-04-14T03:03:45.847Z,7.89
2018-04-14T03:06:16.389Z,7.76
2018-04-14T03:08:45.963Z,7.75
2018-04-14T03:11:15.655Z,7.84
2018-04-14T03:13:46.332Z,7.98
2018-04-14T03:16:15.947Z,7.99
2018-04-14T03:18:45.776Z,8.14
2018-04-14T03:21:15.429Z,8.26
2018-04-14T03:23:57.322Z,8.21
2018-04-14T03:26:28.573Z,8.16
2018-04-14T03:28:58.113Z,8.11
2018-04-14T03:31:27.745Z,8.04
2018-04-14T03:33:57.921Z,8.08
2018-04-14T03:36:28.929Z,8.11
2018-04-14T03:38:58.433Z,8.07
2018-04-14T03:41:28.586Z,8.00
2018-04-14T03:43:58.124Z,8.15
2018-04-14T03:46:27.991Z,8.31
2018-04-14T03:48:57.507Z,8.11
2018-04-14T03:51:27.054Z,8.00
2018-04-14T03:54:12.515Z,7.92
2018-04-14T03:56:46.063Z,7.77
2018-04-14T03:59:15.738Z,7.84
2018-04-14T04:01:45.533Z,7.86
2018-04-14T04:04:15.120Z,7.82
2018-04-14T04:06:45.273Z,7.96
2018-04-14T04:09:14.768Z,7.95
2018-04-14T04:11:44.792Z,7.88
2018-04-14T04:14:15.063Z,7.84
2018-04-14T04:16:45.105Z,7.98
2018-04-14T04:19:32.114Z,7.96
2018-04-14T04:22:19.153Z,7.91
2018-04-14T04:28:04.792Z,7.89
2018-04-14T04:30:34.223Z,7.92
2018-04-14T04:33:03.491Z,7.95
2018-04-14T04:35:33.453Z,7.98
2018-04-14T04:38:04.612Z,7.92
2018-04-14T04:40:34.372Z,7.96
2018-04-14T04:43:04.842Z,7.95
2018-04-14T04:45:35.616Z,8.06
2018-04-14T04:48:05.889Z,8.07
2018-04-14T04:50:35.205Z,8.17
2018-04-14T04:53:04.697Z,8.31
2018-04-14T04:55:35.841Z,8.57
2018-04-14T04:58:05.320Z,8.76
2018-04-14T05:00:35.985Z,8.99
2018-04-14T05:03:05.196Z,9.08
2018-04-14T05:05:34.672Z,9.28
2018-04-14T05:08:04.015Z,9.56
2018-04-14T05:10:34.707Z,9.89
2018-04-14T05:13:04.751Z,10.18
2018-04-14T05:15:34.220Z,10.46
2018-04-14T05:18:03.466Z,10.85
2018-04-14T05:20:32.819Z,11.17
2018-04-14T05:23:03.177Z,11.56
2018-04-14T05:25:32.571Z,11.88
2018-04-14T05:28:02.673Z,12.19
2018-04-14T05:30:32.102Z,12.49
2018-04-14T05:33:02.219Z,12.83
2018-04-14T05:35:31.722Z,12.78
2018-04-14T05:38:02.983Z,12.53
2018-04-14T05:40:32.255Z,12.11
2018-04-14T05:43:01.665Z,12.15
2018-04-14T05:45:40.127Z,12.37
2018-04-14T05:48:09.759Z,12.36
2018-04-14T05:50:40.122Z,12.78
2018-04-14T05:53:09.536Z,13.28
2018-04-14T05:55:39.539Z,13.90
2018-04-14T05:58:09.854Z,14.20
2018-04-14T06:00:39.026Z,14.43
2018-04-14T06:03:09.361Z,14.66
2018-04-14T06:05:39.608Z,14.94
2018-04-14T06:08:08.986Z,14.99
2018-04-14T06:10:39.136Z,15.48
2018-04-14T06:13:09.032Z,16.03
2018-04-14T06:15:38.340Z,16.46
2018-04-14T06:18:07.629Z,16.90
2018-04-14T06:20:37.566Z,17.55
2018-04-14T06:23:07.647Z,17.87
2018-04-14T06:25:37.630Z,17.72
2018-04-14T06:28:06.962Z,17.17
2018-04-14T06:30:37.136Z,16.38
2018-04-14T06:33:06.746Z,16.54
2018-04-14T06:35:35.945Z,17.59
2018-04-14T06:38:05.770Z,18.75
2018-04-14T06:40:35.036Z,19.38
2018-04-14T06:43:06.613Z,19.90
2018-04-14T06:45:35.958Z,20.37
2018-04-14T06:48:05.336Z,20.82
2018-04-14T06:50:34.746Z,21.21
2018-04-14T06:53:04.234Z,21.78
2018-04-14T06:55:33.828Z,21.85
2018-04-14T06:58:03.267Z,22.18
2018-04-14T07:00:33.170Z,22.17
2018-04-14T07:03:02.629Z,22.62
2018-04-14T07:05:33.233Z,22.47
2018-04-14T07:08:03.934Z,23.05
2018-04-14T07:10:33.601Z,22.89
2018-04-14T07:13:04.405Z,23.09
2018-04-14T07:15:33.593Z,23.31
2018-04-14T07:18:02.838Z,23.69
2018-04-14T07:20:33.997Z,24.24
2018-04-14T07:23:03.909Z,24.72
2018-04-14T07:25:33.204Z,24.97
2018-04-14T07:28:03.377Z,25.27
2018-04-14T07:30:32.732Z,25.68
2018-04-14T07:33:02.150Z,26.17
2018-04-14T07:35:31.555Z,26.20
2018-04-14T07:38:00.923Z,26.63
2018-04-14T07:40:30.975Z,26.64
2018-04-14T07:43:01.133Z,27.07
2018-04-14T07:45:32.887Z,27.56
2018-04-14T07:48:02.247Z,27.14
2018-04-14T07:50:31.549Z,27.71
2018-04-14T07:53:00.965Z,27.25
2018-04-14T07:55:32.299Z,27.63
2018-04-14T07:58:02.411Z,26.61
2018-04-14T08:00:31.761Z,27.06
2018-04-14T08:03:02.102Z,27.51
2018-04-14T08:05:32.206Z,28.10
2018-04-14T08:08:01.445Z,28.12
2018-04-14T08:10:31.675Z,28.57
2018-04-14T08:13:01.062Z,29.15
2018-04-14T08:15:30.421Z,29.69
2018-04-14T08:17:59.806Z,29.65
2018-04-14T08:20:29.564Z,29.40
2018-04-14T08:23:01.209Z,29.24
2018-04-14T08:25:32.209Z,28.97
2018-04-14T08:28:01.544Z,28.06
2018-04-14T08:30:30.931Z,28.67
2018-04-14T08:33:05.068Z,29.42
2018-04-14T08:35:34.550Z,30.05
2018-04-14T08:38:04.101Z,29.51
2018-04-14T08:40:34.542Z,29.16
2018-04-14T08:43:04.470Z,28.25
2018-04-14T08:45:34.690Z,27.76
2018-04-14T08:48:04.090Z,28.02
2018-04-14T08:50:33.426Z,28.82
2018-04-14T08:53:02.651Z,29.11
2018-04-14T08:55:32.869Z,28.90
2018-04-14T08:58:02.837Z,28.77
2018-04-14T09:00:32.351Z,29.21
2018-04-14T09:03:02.513Z,29.64
2018-04-14T09:05:31.690Z,29.64
2018-04-14T09:08:00.964Z,30.67
2018-04-14T09:10:33.441Z,31.40
2018-04-14T09:13:02.786Z,32.20
2018-04-14T09:15:32.589Z,32.57
2018-04-14T09:18:02.380Z,32.88
2018-04-14T09:20:39.284Z,32.51
2018-04-14T09:23:14.406Z,32.94
2018-04-14T09:25:53.673Z,33.17
2018-04-14T09:28:24.064Z,32.66
2018-04-14T09:30:53.891Z,32.44
2018-04-14T09:33:23.581Z,31.95
2018-04-14T09:35:53.459Z,31.70
2018-04-14T09:38:23.907Z,31.58
2018-04-14T09:40:54.149Z,30.90
2018-04-14T09:43:24.777Z,29.37
2018-04-14T09:45:54.603Z,28.39
2018-04-14T09:48:24.537Z,27.96
2018-04-14T09:50:55.432Z,27.20
2018-04-14T09:53:26.873Z,26.99
2018-04-14T09:55:57.387Z,27.07
2018-04-14T09:58:27.679Z,27.19
2018-04-14T10:01:02.400Z,26.59
2018-04-14T10:03:32.100Z,25.96
2018-04-14T10:06:01.703Z,25.82
2018-04-14T10:08:31.490Z,25.98
2018-04-14T10:11:01.354Z,25.68
2018-04-14T10:13:39.564Z,25.75
2018-04-14T10:16:12.226Z,26.48
2018-04-14T10:18:43.458Z,27.21
2018-04-14T10:21:12.971Z,27.92
2018-04-14T10:23:42.948Z,28.44
2018-04-14T10:26:13.325Z,28.84
2018-04-14T10:28:43.652Z,29.03
2018-04-14T10:31:13.351Z,28.44
2018-04-14T10:33:43.478Z,28.12
2018-04-14T10:36:13.389Z,28.73
2018-04-14T10:38:44.236Z,29.68
2018-04-14T10:41:14.141Z,30.91
2018-04-14T10:43:44.977Z,30.83
2018-04-14T10:46:15.580Z,29.96
2018-04-14T10:48:47.619Z,29.09
2018-04-14T10:51:17.288Z,28.35
2018-04-14T10:53:46.936Z,28.03
2018-04-14T10:56:17.764Z,27.54
2018-04-14T10:58:48.751Z,28.61
2018-04-14T11:01:18.886Z,28.03
2018-04-14T11:03:49.549Z,27.78
2018-04-14T11:06:21.016Z,26.44
2018-04-14T11:08:52.401Z,26.47
2018-04-14T11:11:21.926Z,26.82
2018-04-14T11:13:52.552Z,26.81
2018-04-14T11:16:22.322Z,26.14
2018-04-14T11:18:52.924Z,26.72
2018-04-14T11:21:22.831Z,26.99
2018-04-14T11:23:53.972Z,27.32
2018-04-14T11:26:23.730Z,27.93
2018-04-14T11:28:54.497Z,28.18
2018-04-14T11:31:24.261Z,28.37
2018-04-14T11:33:55.450Z,28.70
2018-04-14T11:36:25.584Z,27.56
2018-04-14T11:38:56.379Z,26.76
2018-04-14T11:41:27.255Z,26.69
2018-04-14T11:43:58.288Z,26.96
2018-04-14T11:46:29.571Z,27.11
2018-04-14T11:48:59.109Z,27.51
2018-04-14T11:51:29.932Z,26.89
2018-04-14T11:54:00.859Z,26.33
2018-04-14T11:56:32.348Z,26.90
2018-04-14T11:59:02.155Z,26.40
2018-04-14T12:01:35.279Z,26.31
2018-04-14T12:04:05.750Z,26.01
2018-04-14T12:06:37.147Z,26.48
2018-04-14T12:09:14.705Z,26.68
2018-04-14T12:11:46.773Z,26.62
2018-04-14T12:14:18.539Z,26.71
2018-04-14T12:16:50.263Z,26.72
2018-04-14T12:19:20.173Z,27.31
2018-04-14T12:21:49.952Z,26.70
2018-04-14T12:24:19.979Z,26.59
2018-04-14T12:26:49.637Z,26.88
2018-04-14T12:29:19.362Z,26.46
2018-04-14T12:31:49.141Z,26.77
2018-04-14T12:34:18.899Z,26.67
2018-04-14T12:36:49.431Z,26.13
2018-04-14T12:39:20.013Z,25.66
2018-04-14T12:41:50.823Z,24.06
2018-04-14T12:44:21.384Z,23.60
2018-04-14T12:46:59.323Z,23.81
2018-04-14T12:49:29.294Z,24.20
2018-04-14T12:51:58.992Z,24.21
2018-04-14T12:54:28.691Z,23.98
2018-04-14T12:56:58.405Z,23.84
2018-04-14T12:59:27.991Z,23.58
2018-04-14T13:01:57.966Z,23.09
2018-04-14T13:04:28.717Z,23.19
2018-04-14T13:06:58.909Z,22.93
2018-04-14T13:09:29.368Z,23.03
2018-04-14T13:12:01.671Z,22.92
2018-04-14T13:14:33.037Z,23.01
2018-04-14T13:17:02.828Z,23.39
2018-04-14T13:19:33.096Z,23.26
2018-04-14T13:22:02.967Z,22.91
2018-04-14T13:24:33.297Z,22.88
2018-04-14T13:27:03.461Z,22.70
2018-04-14T13:29:33.409Z,22.70
2018-04-14T13:32:03.011Z,22.92
2018-04-14T13:34:33.325Z,23.18
2018-04-14T13:37:03.096Z,22.81
2018-04-14T13:39:32.784Z,22.24
2018-04-14T13:42:04.392Z,22.11
2018-04-14T13:44:34.591Z,22.23
2018-04-14T13:47:04.518Z,21.93
2018-04-14T13:49:34.815Z,22.01
2018-04-14T13:52:04.559Z,22.12
2018-04-14T13:54:35.872Z,22.25
2018-04-14T13:57:05.822Z,22.42
2018-04-14T13:59:35.842Z,22.44
2018-04-14T14:02:05.555Z,22.17
2018-04-14T14:04:35.253Z,22.21
2018-04-14T14:07:04.961Z,21.88
2018-04-14T14:09:34.541Z,21.93
2018-04-14T14:12:05.905Z,21.82
2018-04-14T14:14:35.907Z,21.92
2018-04-14T14:17:05.773Z,21.96
2018-04-14T14:19:36.386Z,21.78
2018-04-14T14:22:05.953Z,21.65
2018-04-14T14:24:36.034Z,21.73
2018-04-14T14:27:05.764Z,21.62
2018-04-14T14:29:35.393Z,21.49
2018-04-14T14:32:05.122Z,21.49
2018-04-14T14:34:34.715Z,21.51
2018-04-14T14:37:04.427Z,21.54
2018-04-14T14:39:41.103Z,21.61
2018-04-14T14:42:11.064Z,21.50
2018-04-14T14:44:40.932Z,21.58
2018-04-14T14:47:10.431Z,21.57
2018-04-14T14:49:40.078Z,21.43
2018-04-14T14:52:09.704Z,21.45
2018-04-14T14:54:39.615Z,21.48
2018-04-14T14:57:09.194Z,21.30
2018-04-14T14:59:38.887Z,21.22
2018-04-14T15:02:08.387Z,21.21
2018-04-14T15:04:38.012Z,21.07
2018-04-14T15:07:07.754Z,21.00
2018-04-14T15:09:38.258Z,21.07
2018-04-14T15:12:07.906Z,21.05
2018-04-14T15:14:37.484Z,20.99
2018-04-14T15:17:07.079Z,21.00
2018-04-14T15:19:37.045Z,20.95
2018-04-14T15:22:07.444Z,20.88
2018-04-14T15:24:37.040Z,20.72
2018-04-14T15:27:06.647Z,20.68
2018-04-14T15:29:36.243Z,20.64
2018-04-14T15:32:08.931Z,20.52
2018-04-14T15:34:52.627Z,20.53
2018-04-14T15:41:17.417Z,20.48
2018-04-14T15:43:48.059Z,20.35
2018-04-14T15:46:18.199Z,20.35
2018-04-14T15:48:48.842Z,20.27
2018-04-14T15:51:21.816Z,20.17
2018-04-14T15:53:51.858Z,20.12
2018-04-14T15:56:22.189Z,20.10
2018-04-14T15:58:52.412Z,20.11
2018-04-14T16:01:22.824Z,20.01
2018-04-14T16:03:54.533Z,19.96
2018-04-14T16:06:26.674Z,19.90
2018-04-14T16:08:57.685Z,19.90
2018-04-14T16:11:28.349Z,19.80
2018-04-14T16:13:58.363Z,19.81
2018-04-14T16:16:28.577Z,19.76
2018-04-14T16:18:59.111Z,19.72
2018-04-14T16:21:30.962Z,19.67
2018-04-14T16:24:01.999Z,19.58
2018-04-14T16:26:33.650Z,19.48
2018-04-14T16:29:04.797Z,19.41
2018-04-14T16:31:36.469Z,19.36
2018-04-14T16:34:07.404Z,19.29
2018-04-14T16:36:37.867Z,19.20
2018-04-14T16:39:08.146Z,19.07
2018-04-14T16:41:38.516Z,19.02
2018-04-14T16:44:09.826Z,19.00
2018-04-14T16:46:40.150Z,18.95
2018-04-14T16:49:11.180Z,18.96
2018-04-14T16:51:41.549Z,18.87
2018-04-14T16:54:12.279Z,18.84
2018-04-14T16:56:42.886Z,18.75
2018-04-14T16:59:13.814Z,18.65
2018-04-14T17:01:45.974Z,18.59
2018-04-14T17:04:16.251Z,18.56
2018-04-14T17:06:47.150Z,18.47
2018-04-14T17:09:17.808Z,18.40
2018-04-14T17:11:48.124Z,18.38
2018-04-14T17:14:18.108Z,18.39
2018-04-14T17:16:48.697Z,18.36
2018-04-14T17:19:20.046Z,18.32
2018-04-14T17:21:50.648Z,18.24
2018-04-14T17:24:21.061Z,18.16
2018-04-14T17:26:51.605Z,18.06
2018-04-14T17:29:22.743Z,17.94
2018-04-14T17:31:54.089Z,17.91
2018-04-14T17:34:24.605Z,17.91
2018-04-14T17:36:55.002Z,17.83
2018-04-14T17:39:25.364Z,17.72
2018-04-14T17:41:57.503Z,17.64
2018-04-14T17:44:27.402Z,17.52
2018-04-14T17:46:57.673Z,17.23
2018-04-14T17:49:27.822Z,17.18
2018-04-14T17:51:58.044Z,17.11
2018-04-14T17:54:28.383Z,16.92
2018-04-14T17:56:58.615Z,16.92
2018-04-14T17:59:28.738Z,16.80
2018-04-14T18:01:58.813Z,16.57
2018-04-14T18:04:29.739Z,16.47
2018-04-14T18:07:00.650Z,16.44
2018-04-14T18:09:30.920Z,16.23
2018-04-14T18:12:01.333Z,16.11
2018-04-14T18:14:40.496Z,16.10
2018-04-14T18:17:11.839Z,16.20
2018-04-14T18:19:41.965Z,16.08
2018-04-14T18:22:12.161Z,16.00
2018-04-14T18:24:44.637Z,15.81
2018-04-14T18:27:15.976Z,15.88
2018-04-14T18:29:46.335Z,15.84
2018-04-14T18:32:18.934Z,15.79
2018-04-14T18:34:49.150Z,15.86
2018-04-14T18:37:19.430Z,15.79
2018-04-14T18:39:50.582Z,15.76
2018-04-14T18:42:21.643Z,15.63
2018-04-14T18:44:51.660Z,15.53
2018-04-14T18:47:21.965Z,15.53
2018-04-14T18:49:54.780Z,15.47
2018-04-14T18:52:25.948Z,15.25
2018-04-14T18:54:56.051Z,15.32
2018-04-14T18:57:26.227Z,15.25
2018-04-14T18:59:56.254Z,15.39
2018-04-14T19:02:27.754Z,15.38
2018-04-14T19:04:58.659Z,15.40
2018-04-14T19:07:40.595Z,15.49
2018-04-14T19:10:16.909Z,15.41
2018-04-14T19:12:49.074Z,15.36
2018-04-14T19:15:20.568Z,15.43
2018-04-14T19:17:51.199Z,15.50
2018-04-14T19:20:21.462Z,15.52
2018-04-14T19:22:52.974Z,15.60
2018-04-14T19:25:23.215Z,15.55
2018-04-14T19:27:53.467Z,15.44
2018-04-14T19:30:23.830Z,15.49
2018-04-14T19:32:54.865Z,15.44
2018-04-14T19:35:25.102Z,15.46
2018-04-14T19:37:55.433Z,15.40
2018-04-14T19:40:26.576Z,15.27
2018-04-14T19:42:57.884Z,15.27
2018-04-14T19:45:32.300Z,15.26
2018-04-14T19:48:03.228Z,15.22
2018-04-14T19:50:33.641Z,15.20
2018-04-14T19:53:03.941Z,15.10
2018-04-14T19:55:34.233Z,15.08
2018-04-14T19:58:04.566Z,15.07
2018-04-14T20:00:35.023Z,15.05
2018-04-14T20:03:06.631Z,15.05
2018-04-14T20:05:37.293Z,14.98
2018-04-14T20:08:07.381Z,15.01
2018-04-14T20:10:49.367Z,14.95
2018-04-14T20:13:41.081Z,14.84
2018-04-14T20:16:38.910Z,14.64
2018-04-14T20:19:24.839Z,14.70
2018-04-14T20:21:58.803Z,14.62
2018-04-14T20:24:29.427Z,14.59
2018-04-14T20:27:00.515Z,14.53
2018-04-14T20:29:30.880Z,14.55
2018-04-14T20:32:01.841Z,14.48
2018-04-14T20:34:36.814Z,14.40
2018-04-14T20:37:10.676Z,14.37
2018-04-14T20:39:40.982Z,14.52
2018-04-14T20:42:12.038Z,14.50
2018-04-14T20:44:43.679Z,14.56
2018-04-14T20:47:16.611Z,14.48
2018-04-14T20:49:48.137Z,14.49
2018-04-14T20:52:19.873Z,14.52
2018-04-14T20:54:50.903Z,14.47
2018-04-14T20:57:22.068Z,14.52
2018-04-14T20:59:52.207Z,14.53
2018-04-14T21:02:23.335Z,14.55
2018-04-14T21:04:54.049Z,14.53
2018-04-14T21:07:25.433Z,14.63
2018-04-14T21:09:55.663Z,14.69
2018-04-14T21:12:27.288Z,14.63
2018-04-14T21:14:59.063Z,14.60
2018-04-14T21:17:30.002Z,14.61
2018-04-14T21:20:03.680Z,14.58
2018-04-14T21:22:37.393Z,14.50
2018-04-14T21:25:08.330Z,14.47
2018-04-14T21:27:38.565Z,14.57
2018-04-14T21:30:09.493Z,14.58
2018-04-14T21:32:40.498Z,14.56
2018-04-14T21:35:19.810Z,14.48
2018-04-14T21:37:54.001Z,14.42
2018-04-14T21:40:24.025Z,14.43
2018-04-14T21:42:53.903Z,14.36
2018-04-14T21:45:30.173Z,14.30
2018-04-14T21:48:00.065Z,14.18
2018-04-14T21:50:29.784Z,14.13
2018-04-14T21:52:59.287Z,14.26
2018-04-14T21:55:29.019Z,14.20
2018-04-14T21:57:58.785Z,14.05
2018-04-14T22:00:28.614Z,14.02
2018-04-14T22:02:58.251Z,14.02
2018-04-14T22:05:28.159Z,13.99
2018-04-14T22:07:58.782Z,13.96
2018-04-14T22:10:28.514Z,14.00
2018-04-14T22:12:58.212Z,14.03
2018-04-14T22:15:28.024Z,14.10
2018-04-14T22:17:57.830Z,14.12
2018-04-14T22:20:32.863Z,14.10
2018-04-14T22:23:02.453Z,14.09
2018-04-14T22:25:33.419Z,14.11
2018-04-14T22:28:03.874Z,14.15
2018-04-14T22:30:35.276Z,14.20
2018-04-14T22:33:13.195Z,14.11
2018-04-14T22:35:47.639Z,14.10
2018-04-14T22:38:17.931Z,14.19
2018-04-14T22:40:47.697Z,14.13
2018-04-14T22:43:18.057Z,14.13
2018-04-14T22:45:52.524Z,14.21
2018-04-14T22:48:25.079Z,14.23
2018-04-14T22:50:54.868Z,14.21
2018-04-14T22:53:29.253Z,14.25
2018-04-14T22:55:59.911Z,14.38
2018-04-14T22:58:34.273Z,14.35
2018-04-14T23:01:04.584Z,14.44
2018-04-14T23:03:39.683Z,14.44
2018-04-14T23:06:09.875Z,14.52
2018-04-14T23:08:42.977Z,14.50
2018-04-14T23:11:12.975Z,14.36
2018-04-14T23:13:42.950Z,13.92
2018-04-14T23:16:13.752Z,13.54
2018-04-14T23:18:44.761Z,13.30
2018-04-14T23:21:15.124Z,13.17
2018-04-14T23:23:50.783Z,13.09
2018-04-14T23:26:23.992Z,13.03
2018-04-14T23:28:54.731Z,13.05
2018-04-14T23:31:25.071Z,13.11
2018-04-14T23:33:54.777Z,13.25
2018-04-14T23:36:25.298Z,13.20
2018-04-14T23:38:55.898Z,13.28
2018-04-14T23:41:33.876Z,13.29
2018-04-14T23:44:04.646Z,13.32
2018-04-14T23:46:34.367Z,13.32
2018-04-14T23:49:04.483Z,13.36
2018-04-14T23:51:34.441Z,13.50
2018-04-14T23:54:04.137Z,13.48
2018-04-14T23:56:34.804Z,13.48
2018-04-14T23:59:06.048Z,13.46
